createdAt,value
2022-12-23T00:01:09.062Z,11.52
2022-12-23T00:03:35.894Z,9.70
2022-12-23T00:06:09.215Z,9.43
2022-12-23T00:08:36.477Z,9.77
2022-12-23T00:11:05.426Z,12.50
2022-12-23T00:13:51.146Z,10.38
2022-12-23T00:16:17.640Z,12.65
2022-12-23T00:18:44.076Z,16.33
2022-12-23T00:21:13.725Z,11.85
2022-12-23T00:23:42.800Z,17.38
2022-12-23T00:26:15.436Z,12.20
2022-12-23T00:28:42.095Z,10.57
2022-12-23T00:31:09.453Z,11.25
2022-12-23T00:33:38.634Z,14.68
2022-12-23T00:36:31.335Z,13.73
2022-12-23T00:39:17.638Z,10.82
2022-12-23T00:42:03.148Z,11.77
2022-12-23T00:44:29.612Z,11.63
2022-12-23T00:46:56.069Z,12.38
2022-12-23T00:49:40.969Z,11.70
2022-12-23T00:52:11.034Z,7.95
2022-12-23T00:54:37.486Z,10.32
2022-12-23T00:57:04.253Z,8.95
2022-12-23T00:59:30.715Z,10.75
2022-12-23T01:02:15.896Z,13.52
2022-12-23T01:05:01.176Z,13.43
2022-12-23T01:07:27.668Z,10.85
2022-12-23T01:09:54.115Z,10.77
2022-12-23T01:12:20.702Z,8.70
2022-12-23T01:14:47.099Z,11.15
2022-12-23T01:17:13.794Z,9.60
2022-12-23T01:19:40.359Z,10.35
2022-12-23T01:22:06.847Z,9.07
2022-12-23T01:24:33.562Z,9.38
2022-12-23T01:27:00.474Z,7.78
2022-12-23T01:29:27.028Z,9.90
2022-12-23T01:31:53.585Z,9.93
2022-12-23T01:34:20.175Z,7.78
2022-12-23T01:36:46.579Z,8.70
2022-12-23T01:39:13.029Z,11.43
2022-12-23T01:41:57.815Z,8.63
2022-12-23T01:44:50.296Z,13.00
2022-12-23T01:47:26.216Z,9.77
2022-12-23T01:50:01.051Z,10.93
2022-12-23T01:52:28.505Z,10.35
2022-12-23T01:54:56.168Z,10.50
2022-12-23T01:57:23.643Z,8.75
2022-12-23T02:00:09.458Z,9.80
2022-12-23T02:02:57.449Z,8.75
2022-12-23T02:05:24.359Z,12.55
2022-12-23T02:08:10.628Z,8.57
2022-12-23T02:10:56.688Z,9.45
2022-12-23T02:14:00.732Z,9.57
2022-12-23T02:16:31.836Z,8.75
2022-12-23T02:19:17.728Z,9.27
2022-12-23T02:22:18.275Z,9.82
2022-12-23T02:25:26.263Z,6.72
2022-12-23T02:28:04.725Z,13.68
2022-12-23T02:30:49.241Z,6.50
2022-12-23T02:33:48.387Z,9.05
2022-12-23T02:36:31.604Z,9.40
2022-12-23T02:39:05.415Z,7.63
2022-12-23T02:41:45.252Z,12.05
2022-12-23T02:44:27.033Z,8.85
2022-12-23T02:47:00.507Z,11.20
2022-12-23T02:49:38.660Z,7.60
2022-12-23T02:52:11.738Z,8.20
2022-12-23T02:54:46.921Z,9.20
2022-12-23T02:57:17.949Z,6.65
2022-12-23T02:59:49.153Z,8.35
2022-12-23T03:02:15.743Z,8.05
2022-12-23T03:04:42.536Z,8.02
2022-12-23T03:07:20.759Z,8.43
2022-12-23T03:09:58.765Z,7.82
2022-12-23T03:12:45.943Z,9.23
2022-12-23T03:15:33.030Z,7.82
2022-12-23T03:18:22.292Z,10.02
2022-12-23T03:21:05.910Z,9.27
2022-12-23T03:26:19.207Z,8.02
2022-12-23T03:29:03.605Z,12.55
2022-12-23T03:31:33.196Z,8.70
2022-12-23T03:34:05.902Z,9.93
2022-12-23T03:36:38.260Z,8.63
2022-12-23T03:39:10.541Z,9.73
2022-12-23T03:41:42.261Z,9.65
2022-12-23T03:44:31.679Z,9.68
2022-12-23T03:47:10.995Z,9.52
2022-12-23T03:49:44.330Z,13.18
2022-12-23T03:52:21.235Z,7.68
2022-12-23T03:54:57.861Z,14.02
2022-12-23T03:57:44.136Z,12.57
2022-12-23T04:00:11.589Z,8.02
2022-12-23T04:02:50.364Z,10.93
2022-12-23T04:05:40.394Z,10.13
2022-12-23T04:08:18.939Z,8.38
2022-12-23T04:10:46.231Z,11.73
2022-12-23T04:13:13.012Z,8.20
2022-12-23T04:15:41.401Z,8.65
2022-12-23T04:18:09.601Z,9.52
2022-12-23T04:20:36.413Z,7.63
2022-12-23T04:23:03.109Z,11.10
2022-12-23T04:25:29.666Z,9.55
2022-12-23T04:27:56.107Z,10.48
2022-12-23T04:30:25.532Z,9.00
2022-12-23T04:32:54.382Z,9.23
2022-12-23T04:35:21.160Z,8.95
2022-12-23T04:37:47.593Z,11.23
2022-12-23T04:40:14.343Z,8.73
2022-12-23T04:42:40.881Z,7.55
2022-12-23T04:45:07.970Z,10.70
2022-12-23T04:47:35.459Z,9.73
2022-12-23T04:50:01.925Z,11.80
2022-12-23T04:52:28.348Z,8.43
2022-12-23T04:54:54.796Z,9.35
2022-12-23T04:57:21.466Z,10.55
2022-12-23T04:59:47.904Z,7.95
2022-12-23T05:02:14.525Z,8.23
2022-12-23T05:04:41.329Z,8.23
2022-12-23T05:07:07.810Z,10.13
2022-12-23T05:09:34.213Z,7.82
2022-12-23T05:12:00.831Z,8.18
2022-12-23T05:14:27.246Z,8.15
2022-12-23T05:16:53.648Z,7.82
2022-12-23T05:19:20.089Z,8.30
2022-12-23T05:21:46.483Z,8.00
2022-12-23T05:24:12.964Z,8.32
2022-12-23T05:26:39.437Z,7.95
2022-12-23T05:29:06.135Z,8.40
2022-12-23T05:31:32.975Z,8.13
2022-12-23T05:34:05.755Z,7.13
2022-12-23T05:36:33.012Z,9.63
2022-12-23T05:38:59.420Z,8.63
2022-12-23T05:41:25.848Z,7.55
2022-12-23T05:43:52.243Z,8.88
2022-12-23T05:46:24.346Z,7.72
2022-12-23T05:48:52.827Z,8.98
2022-12-23T05:51:19.222Z,7.80
2022-12-23T05:53:45.655Z,6.30
2022-12-23T05:56:12.254Z,8.55
2022-12-23T05:58:38.732Z,7.65
2022-12-23T06:01:05.147Z,7.70
2022-12-23T06:03:31.765Z,8.00
2022-12-23T06:05:58.308Z,7.55
2022-12-23T06:08:25.195Z,7.13
2022-12-23T06:10:51.682Z,7.03
2022-12-23T06:13:18.149Z,8.13
2022-12-23T06:15:44.546Z,6.55
2022-12-23T06:18:10.939Z,7.68
2022-12-23T06:20:37.393Z,6.68
2022-12-23T06:23:03.995Z,6.43
2022-12-23T06:25:30.468Z,8.48
2022-12-23T06:27:56.869Z,4.63
2022-12-23T06:30:23.254Z,7.47
2022-12-23T06:32:49.739Z,6.35
2022-12-23T06:35:16.237Z,9.18
2022-12-23T06:37:42.642Z,6.00
2022-12-23T06:40:09.672Z,7.00
2022-12-23T06:42:36.164Z,6.57
2022-12-23T06:45:02.989Z,7.90
2022-12-23T06:47:29.533Z,5.90
2022-12-23T06:49:56.001Z,8.45
2022-12-23T06:52:22.927Z,6.53
2022-12-23T06:54:49.344Z,6.82
2022-12-23T06:57:15.782Z,7.50
2022-12-23T06:59:42.236Z,7.13
2022-12-23T07:02:11.573Z,7.90
2022-12-23T07:04:38.327Z,7.57
2022-12-23T07:07:04.903Z,5.85
2022-12-23T07:09:31.287Z,6.70
2022-12-23T07:11:57.725Z,5.85
2022-12-23T07:14:24.142Z,8.27
2022-12-23T07:16:50.636Z,7.85
2022-12-23T07:19:17.079Z,6.35
2022-12-23T07:21:43.559Z,9.25
2022-12-23T07:24:10.237Z,7.55
2022-12-23T07:26:36.745Z,9.27
2022-12-23T07:29:04.515Z,7.10
2022-12-23T07:31:30.981Z,8.05
2022-12-23T07:33:57.381Z,7.72
2022-12-23T07:36:23.818Z,6.03
2022-12-23T07:38:51.623Z,11.93
2022-12-23T07:41:18.464Z,7.82
2022-12-23T07:43:45.160Z,9.27
2022-12-23T07:46:11.648Z,9.85
2022-12-23T07:48:39.804Z,9.98
2022-12-23T07:51:06.481Z,9.23
2022-12-23T07:53:33.187Z,10.00
2022-12-23T07:55:59.611Z,13.15
2022-12-23T07:58:26.008Z,9.18
2022-12-23T08:01:02.685Z,9.93
2022-12-23T08:03:29.840Z,9.25
2022-12-23T08:06:03.900Z,10.23
2022-12-23T08:08:31.041Z,10.25
2022-12-23T08:11:02.998Z,11.48
2022-12-23T08:13:30.648Z,9.25
2022-12-23T08:15:59.345Z,11.25
2022-12-23T08:18:26.701Z,10.27
2022-12-23T08:20:54.935Z,9.63
2022-12-23T08:23:24.945Z,10.43
2022-12-23T08:26:10.864Z,10.65
2022-12-23T08:28:38.782Z,13.10
2022-12-23T08:31:13.567Z,13.52
2022-12-23T08:33:41.903Z,16.75
2022-12-23T08:36:15.018Z,15.88
2022-12-23T08:38:44.784Z,18.80
2022-12-23T08:41:20.691Z,10.52
2022-12-23T08:43:47.325Z,14.60
2022-12-23T08:46:13.939Z,15.25
2022-12-23T08:48:43.784Z,15.05
2022-12-23T08:51:16.856Z,15.85
2022-12-23T08:53:44.347Z,14.93
2022-12-23T08:56:14.221Z,14.80
2022-12-23T08:58:42.885Z,14.32
2022-12-23T09:01:11.792Z,16.85
2022-12-23T09:03:39.354Z,13.40
2022-12-23T09:06:08.294Z,15.18
2022-12-23T09:08:35.153Z,19.05
2022-12-23T09:11:01.936Z,11.60
2022-12-23T09:13:35.301Z,13.80
2022-12-23T09:16:03.014Z,14.32
2022-12-23T09:18:29.528Z,17.60
2022-12-23T09:21:19.807Z,16.30
2022-12-23T09:23:46.648Z,15.90
2022-12-23T09:26:21.768Z,12.70
2022-12-23T09:28:48.209Z,14.05
2022-12-23T09:31:15.516Z,15.50
2022-12-23T09:33:42.827Z,13.65
2022-12-23T09:36:09.373Z,15.60
2022-12-23T09:38:36.153Z,17.10
2022-12-23T09:41:09.899Z,18.42
2022-12-23T09:43:51.783Z,20.75
2022-12-23T09:46:28.322Z,19.75
2022-12-23T09:49:13.400Z,28.77
2022-12-23T09:51:39.888Z,28.67
2022-12-23T09:54:22.866Z,23.80
2022-12-23T09:57:21.929Z,25.88
2022-12-23T10:00:10.902Z,25.00
2022-12-23T10:02:44.400Z,29.45
2022-12-23T10:05:28.761Z,25.80
2022-12-23T10:08:24.878Z,23.30
2022-12-23T10:10:56.397Z,20.85
2022-12-23T10:13:29.757Z,14.63
2022-12-23T10:16:01.485Z,19.48
2022-12-23T10:18:39.725Z,26.25
2022-12-23T10:21:11.712Z,19.75
2022-12-23T10:23:42.537Z,18.88
2022-12-23T10:26:47.685Z,21.05
2022-12-23T10:29:23.117Z,38.60
2022-12-23T10:31:56.560Z,20.80
2022-12-23T10:37:43.416Z,11.73
2022-12-23T10:40:09.805Z,9.68
2022-12-23T10:42:46.226Z,14.73
2022-12-23T10:45:27.769Z,17.58
2022-12-23T10:48:00.232Z,14.52
2022-12-23T10:50:56.385Z,14.25
2022-12-23T10:53:37.170Z,14.90
2022-12-23T10:56:05.307Z,20.35
2022-12-23T10:58:32.094Z,17.17
2022-12-23T11:01:09.937Z,15.13
2022-12-23T11:03:43.930Z,15.07
2022-12-23T11:06:11.569Z,16.92
2022-12-23T11:08:39.079Z,16.33
2022-12-23T11:11:07.059Z,16.33
2022-12-23T11:13:37.761Z,19.90
2022-12-23T11:16:27.960Z,19.10
2022-12-23T11:19:06.796Z,18.45
2022-12-23T11:21:33.732Z,18.20
2022-12-23T11:24:07.678Z,17.70
2022-12-23T11:26:35.162Z,19.63
2022-12-23T11:29:09.894Z,19.58
2022-12-23T11:31:36.933Z,18.02
2022-12-23T11:34:14.464Z,18.00
2022-12-23T11:36:41.411Z,22.33
2022-12-23T11:39:38.596Z,24.05
2022-12-23T11:42:24.437Z,19.55
2022-12-23T11:44:54.823Z,23.25
2022-12-23T11:47:35.676Z,24.63
2022-12-23T11:50:21.355Z,28.77
2022-12-23T11:52:53.268Z,24.55
2022-12-23T11:55:34.663Z,24.70
2022-12-23T11:58:02.626Z,25.67
2022-12-23T12:00:36.883Z,26.65
2022-12-23T12:03:06.390Z,23.70
2022-12-23T12:05:40.789Z,27.63
2022-12-23T12:08:13.645Z,25.83
2022-12-23T12:10:41.829Z,31.17
2022-12-23T12:13:18.894Z,30.38
2022-12-23T12:18:20.845Z,29.25
2022-12-23T12:20:52.563Z,26.50
2022-12-23T12:23:48.781Z,27.55
2022-12-23T12:26:27.520Z,23.00
2022-12-23T12:29:02.886Z,25.85
2022-12-23T12:31:39.453Z,25.25
2022-12-23T12:34:29.087Z,23.55
2022-12-23T12:37:19.987Z,23.70
2022-12-23T12:39:52.660Z,22.30
2022-12-23T12:42:47.937Z,19.13
2022-12-23T12:45:27.989Z,20.52
2022-12-23T12:48:25.461Z,23.38
2022-12-23T12:51:21.052Z,15.45
2022-12-23T12:54:05.702Z,19.80
2022-12-23T12:56:43.924Z,22.35
2022-12-23T12:59:16.959Z,21.88
2022-12-23T13:02:05.142Z,24.42
2022-12-23T13:04:52.593Z,24.40
2022-12-23T13:07:56.626Z,31.95
2022-12-23T13:10:32.196Z,54.50
2022-12-23T13:13:09.890Z,26.42
2022-12-23T13:15:42.853Z,30.30
2022-12-23T13:18:54.143Z,21.00
2022-12-23T13:21:44.237Z,30.85
2022-12-23T13:27:18.786Z,35.25
2022-12-23T13:30:00.965Z,22.17
2022-12-23T13:32:52.410Z,14.85
2022-12-23T13:35:32.116Z,19.40
2022-12-23T13:38:01.318Z,24.73
2022-12-23T13:40:45.700Z,15.88
2022-12-23T13:43:20.106Z,16.02
2022-12-23T13:45:48.897Z,17.45
2022-12-23T13:48:29.151Z,17.20
2022-12-23T13:51:12.964Z,16.85
2022-12-23T13:54:04.084Z,18.20
2022-12-23T13:56:57.877Z,17.42
2022-12-23T13:59:42.080Z,17.83
2022-12-23T14:02:36.712Z,15.40
2022-12-23T14:05:10.462Z,16.45
2022-12-23T14:07:44.679Z,16.92
2022-12-23T14:10:19.676Z,21.98
2022-12-23T14:12:47.651Z,16.58
2022-12-23T14:15:32.199Z,16.88
2022-12-23T14:18:10.843Z,17.70
2022-12-23T14:20:51.343Z,17.42
2022-12-23T14:23:47.266Z,17.30
2022-12-23T14:26:37.793Z,20.05
2022-12-23T14:29:18.461Z,13.55
2022-12-23T14:31:47.699Z,14.68
2022-12-23T14:34:20.368Z,16.80
2022-12-23T14:37:15.995Z,13.63
2022-12-23T14:39:43.773Z,15.07
2022-12-23T14:42:16.557Z,14.35
2022-12-23T14:44:46.282Z,15.07
2022-12-23T14:47:36.507Z,13.80
2022-12-23T14:50:41.333Z,13.07
2022-12-23T14:53:24.419Z,14.88
2022-12-23T14:56:09.648Z,14.93
2022-12-23T14:58:46.628Z,15.30
2022-12-23T15:01:18.243Z,14.52
2022-12-23T15:03:54.510Z,14.68
2022-12-23T15:06:42.549Z,12.60
2022-12-23T15:09:20.177Z,17.35
2022-12-23T15:11:47.007Z,14.57
2022-12-23T15:14:24.913Z,16.52
2022-12-23T15:16:51.371Z,12.93
2022-12-23T15:19:28.132Z,13.48
2022-12-23T15:22:20.817Z,13.70
2022-12-23T15:24:50.485Z,12.88
2022-12-23T15:27:28.868Z,13.68
2022-12-23T15:29:56.620Z,13.18
2022-12-23T15:32:25.468Z,14.05
2022-12-23T15:34:54.782Z,12.43
2022-12-23T15:37:27.631Z,14.02
2022-12-23T15:40:04.491Z,14.35
2022-12-23T15:42:38.173Z,11.18
2022-12-23T15:45:23.060Z,13.85
2022-12-23T15:47:50.211Z,9.57
2022-12-23T15:50:18.243Z,14.05
2022-12-23T15:52:47.897Z,11.02
2022-12-23T15:55:21.222Z,12.93
2022-12-23T15:57:50.579Z,13.95
2022-12-23T16:00:41.665Z,13.18
2022-12-23T16:03:33.947Z,14.45
2022-12-23T16:06:19.384Z,10.75
2022-12-23T16:08:57.697Z,12.93
2022-12-23T16:11:36.392Z,11.43
2022-12-23T16:14:30.819Z,14.82
2022-12-23T16:17:09.158Z,11.75
2022-12-23T16:19:48.969Z,16.98
2022-12-23T16:22:34.382Z,11.13
2022-12-23T16:25:22.147Z,12.27
2022-12-23T16:28:08.897Z,11.88
2022-12-23T16:30:41.850Z,10.88
2022-12-23T16:33:26.620Z,10.70
2022-12-23T16:35:54.319Z,12.40
2022-12-23T16:38:23.528Z,12.20
2022-12-23T16:40:53.777Z,12.73
2022-12-23T16:43:21.566Z,10.73
2022-12-23T16:45:52.882Z,14.05
2022-12-23T16:48:28.732Z,9.80
2022-12-23T16:50:55.506Z,12.45
2022-12-23T16:53:22.027Z,13.75
2022-12-23T16:55:55.317Z,10.27
2022-12-23T16:58:25.340Z,12.30
2022-12-23T17:00:52.602Z,12.57
2022-12-23T17:03:20.579Z,10.40
2022-12-23T17:05:48.246Z,15.63
2022-12-23T17:08:15.181Z,15.90
2022-12-23T17:10:44.426Z,11.85
2022-12-23T17:13:17.225Z,12.68
2022-12-23T17:15:43.679Z,15.00
2022-12-23T17:18:13.233Z,11.07
2022-12-23T17:20:40.392Z,12.35
2022-12-23T17:23:07.174Z,10.02
2022-12-23T17:25:33.654Z,13.82
2022-12-23T17:28:00.136Z,12.48
2022-12-23T17:30:26.549Z,14.75
2022-12-23T17:32:56.691Z,12.68
2022-12-23T17:35:24.917Z,13.25
2022-12-23T17:37:51.839Z,11.90
2022-12-23T17:40:19.128Z,12.65
2022-12-23T17:42:46.474Z,10.93
2022-12-23T17:45:25.883Z,10.95
2022-12-23T17:47:52.977Z,13.32
2022-12-23T17:50:20.393Z,11.80
2022-12-23T17:52:47.119Z,12.23
2022-12-23T17:55:25.219Z,10.32
2022-12-23T17:57:51.841Z,10.85
2022-12-23T18:00:28.136Z,12.13
2022-12-23T18:03:00.302Z,12.50
2022-12-23T18:05:32.023Z,14.25
2022-12-23T18:08:00.795Z,10.65
2022-12-23T18:10:39.671Z,15.00
2022-12-23T18:13:09.960Z,11.63
2022-12-23T18:15:39.398Z,14.57
2022-12-23T18:18:23.915Z,9.35
2022-12-23T18:20:56.534Z,10.20
2022-12-23T18:23:32.324Z,12.07
2022-12-23T18:25:59.581Z,11.27
2022-12-23T18:28:26.835Z,13.70
2022-12-23T18:30:56.762Z,11.52
2022-12-23T18:33:24.146Z,17.15
2022-12-23T18:35:50.928Z,8.80
2022-12-23T18:38:18.408Z,16.77
2022-12-23T18:40:45.421Z,13.80
2022-12-23T18:43:24.061Z,12.55
2022-12-23T18:45:53.553Z,24.27
2022-12-23T18:48:20.384Z,21.27
2022-12-23T18:50:47.005Z,20.13
2022-12-23T18:53:25.468Z,14.52
2022-12-23T18:55:53.514Z,14.63
2022-12-23T18:58:20.666Z,19.13
2022-12-23T19:00:48.649Z,24.95
2022-12-23T19:03:29.283Z,25.55
2022-12-23T19:05:56.983Z,20.33
2022-12-23T19:08:27.062Z,15.30
2022-12-23T19:10:55.011Z,13.02
2022-12-23T19:13:22.221Z,25.38
2022-12-23T19:15:48.874Z,11.80
2022-12-23T19:18:20.637Z,17.25
2022-12-23T19:20:48.631Z,15.85
2022-12-23T19:23:15.684Z,16.95
2022-12-23T19:25:49.262Z,15.73
2022-12-23T19:28:21.681Z,28.60
2022-12-23T19:30:48.694Z,20.08
2022-12-23T19:33:15.317Z,19.63
2022-12-23T19:35:42.383Z,19.80
2022-12-23T19:38:08.822Z,14.77
2022-12-23T19:40:35.253Z,19.85
2022-12-23T19:43:03.061Z,13.45
2022-12-23T19:45:29.572Z,16.50
2022-12-23T19:47:56.132Z,16.60
2022-12-23T19:50:22.624Z,14.88
2022-12-23T19:52:50.559Z,17.63
2022-12-23T19:55:17.139Z,11.80
2022-12-23T19:57:43.778Z,22.48
2022-12-23T20:00:10.908Z,12.82
2022-12-23T20:02:40.020Z,16.50
2022-12-23T20:05:06.836Z,20.27
2022-12-23T20:07:35.597Z,21.08
2022-12-23T20:10:02.545Z,17.00
2022-12-23T20:12:28.985Z,10.00
2022-12-23T20:14:55.498Z,16.85
2022-12-23T20:17:21.869Z,16.88
2022-12-23T20:19:48.308Z,15.13
2022-12-23T20:22:14.766Z,10.18
2022-12-23T20:24:41.223Z,12.70
2022-12-23T20:27:11.348Z,14.70
2022-12-23T20:29:38.439Z,14.95
2022-12-23T20:32:05.111Z,20.73
2022-12-23T20:34:38.365Z,15.50
2022-12-23T20:37:05.987Z,17.15
2022-12-23T20:39:32.454Z,18.45
2022-12-23T20:41:58.951Z,18.17
2022-12-23T20:44:35.214Z,17.30
2022-12-23T20:47:04.042Z,15.38
2022-12-23T20:49:30.709Z,9.50
2022-12-23T20:51:57.175Z,6.72
2022-12-23T20:54:29.726Z,13.07
2022-12-23T20:56:58.488Z,5.78
2022-12-23T20:59:24.876Z,9.02
2022-12-23T21:01:51.370Z,15.32
2022-12-23T21:04:17.799Z,11.98
2022-12-23T21:06:44.843Z,8.90
2022-12-23T21:09:13.711Z,13.63
2022-12-23T21:11:42.920Z,13.27
2022-12-23T21:14:10.612Z,9.20
2022-12-23T21:16:38.179Z,11.40
2022-12-23T21:19:06.425Z,13.50
2022-12-23T21:21:32.934Z,20.48
2022-12-23T21:24:01.689Z,8.80
2022-12-23T21:26:29.990Z,8.25
2022-12-23T21:28:59.329Z,13.95
2022-12-23T21:31:27.775Z,11.95
2022-12-23T21:33:54.674Z,7.07
2022-12-23T21:36:23.286Z,11.13
2022-12-23T21:38:50.189Z,8.90
2022-12-23T21:41:23.112Z,10.32
2022-12-23T21:43:50.551Z,16.70
2022-12-23T21:46:20.800Z,9.10
2022-12-23T21:48:47.975Z,12.25
2022-12-23T21:51:41.747Z,9.05
2022-12-23T21:54:09.981Z,18.88
2022-12-23T21:56:36.941Z,17.63
2022-12-23T21:59:08.952Z,12.23
2022-12-23T22:01:35.468Z,11.95
2022-12-23T22:04:02.126Z,3.15
2022-12-23T22:06:31.842Z,11.88
2022-12-23T22:08:59.367Z,13.15
2022-12-23T22:11:28.361Z,7.10
2022-12-23T22:13:56.982Z,11.57
2022-12-23T22:16:26.262Z,19.52
2022-12-23T22:18:53.577Z,8.57
2022-12-23T22:21:23.394Z,14.07
2022-12-23T22:23:51.209Z,14.48
2022-12-23T22:26:24.732Z,7.82
2022-12-23T22:28:53.716Z,8.05
2022-12-23T22:31:27.181Z,4.63
2022-12-23T22:33:53.687Z,8.32
2022-12-23T22:36:20.218Z,11.38
2022-12-23T22:38:52.672Z,14.70
2022-12-23T22:41:19.552Z,5.03
2022-12-23T22:43:46.044Z,5.45
2022-12-23T22:46:12.886Z,15.32
2022-12-23T22:48:39.426Z,15.43
2022-12-23T22:51:09.396Z,9.85
2022-12-23T22:53:37.048Z,6.03
2022-12-23T22:56:04.438Z,9.27
2022-12-23T22:58:32.512Z,16.67
2022-12-23T23:00:59.174Z,11.68
2022-12-23T23:03:26.472Z,14.63
2022-12-23T23:06:02.335Z,12.45
2022-12-23T23:08:29.893Z,12.60
2022-12-23T23:10:58.957Z,11.25
2022-12-23T23:13:28.828Z,6.53
2022-12-23T23:15:56.025Z,10.30
2022-12-23T23:18:23.451Z,10.30
2022-12-23T23:20:50.150Z,14.90
2022-12-23T23:23:17.003Z,16.30
2022-12-23T23:25:43.801Z,9.43
2022-12-23T23:28:11.654Z,7.90
2022-12-23T23:30:39.320Z,8.80
2022-12-23T23:33:09.831Z,13.80
2022-12-23T23:38:03.223Z,3.92
2022-12-23T23:40:29.673Z,5.60
2022-12-23T23:42:56.075Z,17.80
2022-12-23T23:45:22.696Z,7.60
2022-12-23T23:47:49.105Z,10.95
2022-12-23T23:50:15.569Z,12.85
2022-12-23T23:52:42.038Z,11.88
2022-12-23T23:55:08.950Z,12.45
2022-12-23T23:57:35.845Z,10.35
